sensor_id;sensor_type;location;lat;lon;timestamp;temperature;humidity
84435;SHT30;74664;45.620;5.138;2024-02-21T00:02:04;9.47;64.20
84435;SHT30;74664;45.620;5.138;2024-02-21T00:04:30;9.50;64.17
84435;SHT30;74664;45.620;5.138;2024-02-21T00:07:04;9.45;64.15
84435;SHT30;74664;45.620;5.138;2024-02-21T00:09:34;9.47;64.24
84435;SHT30;74664;45.620;5.138;2024-02-21T00:12:01;9.47;64.30
84435;SHT30;74664;45.620;5.138;2024-02-21T00:14:28;9.43;64.30
84435;SHT30;74664;45.620;5.138;2024-02-21T00:16:57;9.41;64.25
84435;SHT30;74664;45.620;5.138;2024-02-21T00:19:27;9.40;64.26
84435;SHT30;74664;45.620;5.138;2024-02-21T00:21:58;9.40;64.30
84435;SHT30;74664;45.620;5.138;2024-02-21T00:24:25;9.38;64.25
84435;SHT30;74664;45.620;5.138;2024-02-21T00:26:53;9.40;64.18
84435;SHT30;74664;45.620;5.138;2024-02-21T00:29:20;9.38;64.34
84435;SHT30;74664;45.620;5.138;2024-02-21T00:31:50;9.35;64.43
84435;SHT30;74664;45.620;5.138;2024-02-21T00:34:18;9.34;64.34
84435;SHT30;74664;45.620;5.138;2024-02-21T00:36:45;9.33;64.26
84435;SHT30;74664;45.620;5.138;2024-02-21T00:39:12;9.30;64.27
84435;SHT30;74664;45.620;5.138;2024-02-21T00:41:38;9.30;64.27
84435;SHT30;74664;45.620;5.138;2024-02-21T00:44:05;9.31;64.24
84435;SHT30;74664;45.620;5.138;2024-02-21T00:46:32;9.30;64.28
84435;SHT30;74664;45.620;5.138;2024-02-21T00:48:58;9.24;64.46
84435;SHT30;74664;45.620;5.138;2024-02-21T00:51:26;9.20;64.68
84435;SHT30;74664;45.620;5.138;2024-02-21T00:53:53;9.22;64.92
84435;SHT30;74664;45.620;5.138;2024-02-21T00:56:20;9.16;65.04
84435;SHT30;74664;45.620;5.138;2024-02-21T00:58:47;9.16;65.18
84435;SHT30;74664;45.620;5.138;2024-02-21T01:01:21;9.13;65.18
84435;SHT30;74664;45.620;5.138;2024-02-21T01:03:49;9.12;65.16
84435;SHT30;74664;45.620;5.138;2024-02-21T01:06:16;9.10;65.07
84435;SHT30;74664;45.620;5.138;2024-02-21T01:08:46;9.07;65.05
84435;SHT30;74664;45.620;5.138;2024-02-21T01:11:13;9.07;65.06
84435;SHT30;74664;45.620;5.138;2024-02-21T01:13:43;9.09;65.03
84435;SHT30;74664;45.620;5.138;2024-02-21T01:16:10;9.10;64.97
84435;SHT30;74664;45.620;5.138;2024-02-21T01:18:40;9.07;64.90
84435;SHT30;74664;45.620;5.138;2024-02-21T01:21:16;9.06;64.79
84435;SHT30;74664;45.620;5.138;2024-02-21T01:23:43;9.03;64.93
84435;SHT30;74664;45.620;5.138;2024-02-21T01:26:14;9.00;65.31
84435;SHT30;74664;45.620;5.138;2024-02-21T01:28:41;8.99;65.20
84435;SHT30;74664;45.620;5.138;2024-02-21T01:31:07;8.97;65.23
84435;SHT30;74664;45.620;5.138;2024-02-21T01:33:37;8.92;65.24
84435;SHT30;74664;45.620;5.138;2024-02-21T01:36:07;8.95;65.25
84435;SHT30;74664;45.620;5.138;2024-02-21T01:38:34;8.93;65.26
84435;SHT30;74664;45.620;5.138;2024-02-21T01:41:01;8.92;65.28
84435;SHT30;74664;45.620;5.138;2024-02-21T01:43:29;8.89;65.33
84435;SHT30;74664;45.620;5.138;2024-02-21T01:45:57;8.89;65.41
84435;SHT30;74664;45.620;5.138;2024-02-21T01:48:26;8.87;65.43
84435;SHT30;74664;45.620;5.138;2024-02-21T01:50:56;8.87;65.38
84435;SHT30;74664;45.620;5.138;2024-02-21T01:53:30;8.87;65.49
84435;SHT30;74664;45.620;5.138;2024-02-21T01:56:00;8.89;65.45
84435;SHT30;74664;45.620;5.138;2024-02-21T01:58:29;8.87;65.43
84435;SHT30;74664;45.620;5.138;2024-02-21T02:00:57;8.87;65.37
84435;SHT30;74664;45.620;5.138;2024-02-21T02:03:24;8.87;65.46
84435;SHT30;74664;45.620;5.138;2024-02-21T02:05:51;8.87;65.64
84435;SHT30;74664;45.620;5.138;2024-02-21T02:08:19;8.85;65.80
84435;SHT30;74664;45.620;5.138;2024-02-21T02:10:47;8.83;65.65
84435;SHT30;74664;45.620;5.138;2024-02-21T02:13:14;8.80;65.70
84435;SHT30;74664;45.620;5.138;2024-02-21T02:15:44;8.80;65.70
84435;SHT30;74664;45.620;5.138;2024-02-21T02:18:14;8.75;65.67
84435;SHT30;74664;45.620;5.138;2024-02-21T02:20:41;8.75;65.69
84435;SHT30;74664;45.620;5.138;2024-02-21T02:23:11;8.76;65.64
84435;SHT30;74664;45.620;5.138;2024-02-21T02:25:41;8.73;65.66
84435;SHT30;74664;45.620;5.138;2024-02-21T02:28:09;8.71;65.72
84435;SHT30;74664;45.620;5.138;2024-02-21T02:30:36;8.71;65.76
84435;SHT30;74664;45.620;5.138;2024-02-21T02:33:03;8.69;65.82
84435;SHT30;74664;45.620;5.138;2024-02-21T02:35:30;8.68;65.91
84435;SHT30;74664;45.620;5.138;2024-02-21T02:37:57;8.69;65.96
84435;SHT30;74664;45.620;5.138;2024-02-21T02:40:26;8.68;65.89
84435;SHT30;74664;45.620;5.138;2024-02-21T02:42:54;8.66;65.80
84435;SHT30;74664;45.620;5.138;2024-02-21T02:45:23;8.69;65.80
84435;SHT30;74664;45.620;5.138;2024-02-21T02:47:51;8.66;65.82
84435;SHT30;74664;45.620;5.138;2024-02-21T02:50:19;8.68;65.86
84435;SHT30;74664;45.620;5.138;2024-02-21T02:52:45;8.66;65.85
84435;SHT30;74664;45.620;5.138;2024-02-21T02:55:12;8.68;65.79
84435;SHT30;74664;45.620;5.138;2024-02-21T02:57:39;8.66;65.78
84435;SHT30;74664;45.620;5.138;2024-02-21T03:00:10;8.66;65.77
84435;SHT30;74664;45.620;5.138;2024-02-21T03:02:38;8.65;65.77
84435;SHT30;74664;45.620;5.138;2024-02-21T03:05:12;8.65;65.62
84435;SHT30;74664;45.620;5.138;2024-02-21T03:07:40;8.64;65.56
84435;SHT30;74664;45.620;5.138;2024-02-21T03:10:07;8.59;65.57
84435;SHT30;74664;45.620;5.138;2024-02-21T03:12:34;8.62;65.67
84435;SHT30;74664;45.620;5.138;2024-02-21T03:15:00;8.59;65.64
84435;SHT30;74664;45.620;5.138;2024-02-21T03:17:28;8.58;65.66
84435;SHT30;74664;45.620;5.138;2024-02-21T03:19:55;8.52;65.64
84435;SHT30;74664;45.620;5.138;2024-02-21T03:22:21;8.52;65.64
84435;SHT30;74664;45.620;5.138;2024-02-21T03:24:48;8.48;65.68
84435;SHT30;74664;45.620;5.138;2024-02-21T03:27:15;8.48;65.73
84435;SHT30;74664;45.620;5.138;2024-02-21T03:29:42;8.46;65.72
84435;SHT30;74664;45.620;5.138;2024-02-21T03:32:09;8.45;65.83
84435;SHT30;74664;45.620;5.138;2024-02-21T03:34:37;8.44;65.95
84435;SHT30;74664;45.620;5.138;2024-02-21T03:37:04;8.44;66.11
84435;SHT30;74664;45.620;5.138;2024-02-21T03:39:31;8.44;66.25
84435;SHT30;74664;45.620;5.138;2024-02-21T03:41:57;8.41;66.30
84435;SHT30;74664;45.620;5.138;2024-02-21T03:44:26;8.42;66.46
84435;SHT30;74664;45.620;5.138;2024-02-21T03:46:52;8.40;66.41
84435;SHT30;74664;45.620;5.138;2024-02-21T03:49:19;8.34;66.62
84435;SHT30;74664;45.620;5.138;2024-02-21T03:51:47;8.35;66.64
84435;SHT30;74664;45.620;5.138;2024-02-21T03:54:13;8.33;66.69
84435;SHT30;74664;45.620;5.138;2024-02-21T03:56:40;8.33;66.90
84435;SHT30;74664;45.620;5.138;2024-02-21T03:59:07;8.34;66.70
84435;SHT30;74664;45.620;5.138;2024-02-21T04:01:34;8.30;66.64
84435;SHT30;74664;45.620;5.138;2024-02-21T04:04:00;8.31;66.72
84435;SHT30;74664;45.620;5.138;2024-02-21T04:06:33;8.33;66.78
84435;SHT30;74664;45.620;5.138;2024-02-21T04:09:01;8.33;66.74
84435;SHT30;74664;45.620;5.138;2024-02-21T04:11:28;8.33;66.68
84435;SHT30;74664;45.620;5.138;2024-02-21T04:13:55;8.33;66.53
84435;SHT30;74664;45.620;5.138;2024-02-21T04:16:22;8.34;66.71
84435;SHT30;74664;45.620;5.138;2024-02-21T04:18:48;8.35;66.63
84435;SHT30;74664;45.620;5.138;2024-02-21T04:21:16;8.35;66.55
84435;SHT30;74664;45.620;5.138;2024-02-21T04:23:43;8.35;66.58
84435;SHT30;74664;45.620;5.138;2024-02-21T04:26:14;8.33;66.58
84435;SHT30;74664;45.620;5.138;2024-02-21T04:28:41;8.33;66.56
84435;SHT30;74664;45.620;5.138;2024-02-21T04:31:07;8.33;66.61
84435;SHT30;74664;45.620;5.138;2024-02-21T04:33:34;8.33;66.65
84435;SHT30;74664;45.620;5.138;2024-02-21T04:36:01;8.35;66.48
84435;SHT30;74664;45.620;5.138;2024-02-21T04:38:27;8.34;66.44
84435;SHT30;74664;45.620;5.138;2024-02-21T04:40:54;8.35;66.43
84435;SHT30;74664;45.620;5.138;2024-02-21T04:43:24;8.30;66.52
84435;SHT30;74664;45.620;5.138;2024-02-21T04:45:51;8.31;66.57
84435;SHT30;74664;45.620;5.138;2024-02-21T04:48:19;8.33;66.48
84435;SHT30;74664;45.620;5.138;2024-02-21T04:50:45;8.31;66.44
84435;SHT30;74664;45.620;5.138;2024-02-21T04:53:12;8.31;66.42
84435;SHT30;74664;45.620;5.138;2024-02-21T04:55:39;8.30;66.47
84435;SHT30;74664;45.620;5.138;2024-02-21T04:58:06;8.27;66.49
84435;SHT30;74664;45.620;5.138;2024-02-21T05:00:34;8.25;66.56
84435;SHT30;74664;45.620;5.138;2024-02-21T05:03:01;8.25;66.48
84435;SHT30;74664;45.620;5.138;2024-02-21T05:05:28;8.25;66.51
84435;SHT30;74664;45.620;5.138;2024-02-21T05:07:55;8.20;66.51
84435;SHT30;74664;45.620;5.138;2024-02-21T05:10:21;8.20;66.53
84435;SHT30;74664;45.620;5.138;2024-02-21T05:12:48;8.15;66.66
84435;SHT30;74664;45.620;5.138;2024-02-21T05:15:15;8.13;66.74
84435;SHT30;74664;45.620;5.138;2024-02-21T05:17:43;8.14;66.96
84435;SHT30;74664;45.620;5.138;2024-02-21T05:20:10;8.11;67.21
84435;SHT30;74664;45.620;5.138;2024-02-21T05:22:37;8.13;67.27
84435;SHT30;74664;45.620;5.138;2024-02-21T05:25:05;8.08;67.35
84435;SHT30;74664;45.620;5.138;2024-02-21T05:27:31;8.06;67.38
84435;SHT30;74664;45.620;5.138;2024-02-21T05:29:58;8.04;67.48
84435;SHT30;74664;45.620;5.138;2024-02-21T05:32:25;8.04;67.65
84435;SHT30;74664;45.620;5.138;2024-02-21T05:34:53;8.04;67.79
84435;SHT30;74664;45.620;5.138;2024-02-21T05:37:20;8.01;67.61
84435;SHT30;74664;45.620;5.138;2024-02-21T05:39:47;8.03;67.72
84435;SHT30;74664;45.620;5.138;2024-02-21T05:42:14;7.98;67.78
84435;SHT30;74664;45.620;5.138;2024-02-21T05:44:41;8.00;67.72
84435;SHT30;74664;45.620;5.138;2024-02-21T05:47:07;7.97;67.75
84435;SHT30;74664;45.620;5.138;2024-02-21T05:49:35;7.97;67.67
84435;SHT30;74664;45.620;5.138;2024-02-21T05:52:04;7.98;67.67
84435;SHT30;74664;45.620;5.138;2024-02-21T05:54:31;7.96;67.73
84435;SHT30;74664;45.620;5.138;2024-02-21T05:56:58;7.93;67.82
84435;SHT30;74664;45.620;5.138;2024-02-21T05:59:25;7.97;67.95
84435;SHT30;74664;45.620;5.138;2024-02-21T06:01:57;7.93;67.63
84435;SHT30;74664;45.620;5.138;2024-02-21T06:04:24;7.93;67.68
84435;SHT30;74664;45.620;5.138;2024-02-21T06:06:51;7.97;67.67
84435;SHT30;74664;45.620;5.138;2024-02-21T06:09:19;7.96;67.56
84435;SHT30;74664;45.620;5.138;2024-02-21T06:11:45;7.96;67.53
84435;SHT30;74664;45.620;5.138;2024-02-21T06:14:14;7.94;67.35
84435;SHT30;74664;45.620;5.138;2024-02-21T06:16:41;7.93;67.28
84435;SHT30;74664;45.620;5.138;2024-02-21T06:19:07;7.93;67.26
84435;SHT30;74664;45.620;5.138;2024-02-21T06:21:34;7.90;67.26
84435;SHT30;74664;45.620;5.138;2024-02-21T06:24:01;7.91;67.25
84435;SHT30;74664;45.620;5.138;2024-02-21T06:26:29;7.91;67.20
84435;SHT30;74664;45.620;5.138;2024-02-21T06:28:55;7.87;67.13
84435;SHT30;74664;45.620;5.138;2024-02-21T06:31:22;7.86;67.17
84435;SHT30;74664;45.620;5.138;2024-02-21T06:33:49;7.87;67.30
84435;SHT30;74664;45.620;5.138;2024-02-21T06:36:15;7.84;67.35
84435;SHT30;74664;45.620;5.138;2024-02-21T06:38:42;7.84;67.25
84435;SHT30;74664;45.620;5.138;2024-02-21T06:41:14;7.82;67.20
84435;SHT30;74664;45.620;5.138;2024-02-21T06:43:43;7.82;67.22
84435;SHT30;74664;45.620;5.138;2024-02-21T06:46:10;7.80;67.24
84435;SHT30;74664;45.620;5.138;2024-02-21T06:48:36;7.76;67.36
84435;SHT30;74664;45.620;5.138;2024-02-21T06:51:03;7.75;67.35
84435;SHT30;74664;45.620;5.138;2024-02-21T06:53:32;7.75;67.43
84435;SHT30;74664;45.620;5.138;2024-02-21T06:55:59;7.75;67.59
84435;SHT30;74664;45.620;5.138;2024-02-21T06:58:26;7.75;67.71
84435;SHT30;74664;45.620;5.138;2024-02-21T07:00:53;7.77;67.78
84435;SHT30;74664;45.620;5.138;2024-02-21T07:03:19;7.80;67.81
84435;SHT30;74664;45.620;5.138;2024-02-21T07:05:46;7.83;67.92
84435;SHT30;74664;45.620;5.138;2024-02-21T07:08:13;7.89;67.93
84435;SHT30;74664;45.620;5.138;2024-02-21T07:10:39;7.89;67.93
84435;SHT30;74664;45.620;5.138;2024-02-21T07:13:06;7.91;67.93
84435;SHT30;74664;45.620;5.138;2024-02-21T07:15:32;7.93;67.79
84435;SHT30;74664;45.620;5.138;2024-02-21T07:18:01;7.94;67.78
84435;SHT30;74664;45.620;5.138;2024-02-21T07:20:27;7.94;68.08
84435;SHT30;74664;45.620;5.138;2024-02-21T07:22:54;7.98;68.15
84435;SHT30;74664;45.620;5.138;2024-02-21T07:25:21;8.03;67.86
84435;SHT30;74664;45.620;5.138;2024-02-21T07:27:47;8.06;67.71
84435;SHT30;74664;45.620;5.138;2024-02-21T07:30:14;8.04;67.52
84435;SHT30;74664;45.620;5.138;2024-02-21T07:32:41;8.03;67.64
84435;SHT30;74664;45.620;5.138;2024-02-21T07:35:09;7.98;67.68
84435;SHT30;74664;45.620;5.138;2024-02-21T07:37:37;7.98;67.60
84435;SHT30;74664;45.620;5.138;2024-02-21T07:40:05;7.98;67.76
84435;SHT30;74664;45.620;5.138;2024-02-21T07:42:32;7.94;67.76
84435;SHT30;74664;45.620;5.138;2024-02-21T07:45:00;7.94;67.83
84435;SHT30;74664;45.620;5.138;2024-02-21T07:47:28;7.91;67.80
84435;SHT30;74664;45.620;5.138;2024-02-21T07:49:55;7.90;67.91
84435;SHT30;74664;45.620;5.138;2024-02-21T07:52:23;7.87;68.03
84435;SHT30;74664;45.620;5.138;2024-02-21T07:54:50;7.89;68.16
84435;SHT30;74664;45.620;5.138;2024-02-21T07:57:17;7.87;68.35
84435;SHT30;74664;45.620;5.138;2024-02-21T07:59:43;7.91;68.48
84435;SHT30;74664;45.620;5.138;2024-02-21T08:02:13;7.93;68.49
84435;SHT30;74664;45.620;5.138;2024-02-21T08:04:40;7.98;68.72
84435;SHT30;74664;45.620;5.138;2024-02-21T08:07:09;8.08;68.70
84435;SHT30;74664;45.620;5.138;2024-02-21T08:09:39;8.18;68.75
84435;SHT30;74664;45.620;5.138;2024-02-21T08:12:06;8.30;68.73
84435;SHT30;74664;45.620;5.138;2024-02-21T08:14:33;8.37;68.75
84435;SHT30;74664;45.620;5.138;2024-02-21T08:17:00;8.42;68.94
84435;SHT30;74664;45.620;5.138;2024-02-21T08:19:26;8.46;68.90
84435;SHT30;74664;45.620;5.138;2024-02-21T08:21:53;8.49;68.78
84435;SHT30;74664;45.620;5.138;2024-02-21T08:24:20;8.54;69.18
84435;SHT30;74664;45.620;5.138;2024-02-21T08:26:49;8.62;69.33
84435;SHT30;74664;45.620;5.138;2024-02-21T08:29:16;8.64;69.43
84435;SHT30;74664;45.620;5.138;2024-02-21T08:31:43;8.66;68.98
84435;SHT30;74664;45.620;5.138;2024-02-21T08:34:09;8.75;68.96
84435;SHT30;74664;45.620;5.138;2024-02-21T08:36:36;8.83;68.89
84435;SHT30;74664;45.620;5.138;2024-02-21T08:39:03;8.93;69.08
84435;SHT30;74664;45.620;5.138;2024-02-21T08:41:31;8.96;68.79
84435;SHT30;74664;45.620;5.138;2024-02-21T08:43:59;9.04;68.82
84435;SHT30;74664;45.620;5.138;2024-02-21T08:46:26;9.14;68.54
84435;SHT30;74664;45.620;5.138;2024-02-21T08:48:54;9.16;68.82
84435;SHT30;74664;45.620;5.138;2024-02-21T08:51:21;9.17;68.84
84435;SHT30;74664;45.620;5.138;2024-02-21T08:53:48;9.19;68.84
84435;SHT30;74664;45.620;5.138;2024-02-21T08:56:15;9.22;68.69
84435;SHT30;74664;45.620;5.138;2024-02-21T08:58:43;9.28;68.71
84435;SHT30;74664;45.620;5.138;2024-02-21T09:01:11;9.35;68.66
84435;SHT30;74664;45.620;5.138;2024-02-21T09:03:38;9.40;68.61
84435;SHT30;74664;45.620;5.138;2024-02-21T09:06:06;9.45;68.45
84435;SHT30;74664;45.620;5.138;2024-02-21T09:08:33;9.54;68.44
84435;SHT30;74664;45.620;5.138;2024-02-21T09:11:00;9.62;68.36
84435;SHT30;74664;45.620;5.138;2024-02-21T09:13:27;9.68;68.45
84435;SHT30;74664;45.620;5.138;2024-02-21T09:15:54;9.74;68.13
84435;SHT30;74664;45.620;5.138;2024-02-21T09:18:22;9.77;68.46
84435;SHT30;74664;45.620;5.138;2024-02-21T09:20:49;9.84;67.97
84435;SHT30;74664;45.620;5.138;2024-02-21T09:23:15;9.89;67.94
84435;SHT30;74664;45.620;5.138;2024-02-21T09:25:42;9.96;67.87
84435;SHT30;74664;45.620;5.138;2024-02-21T09:28:09;9.96;67.75
84435;SHT30;74664;45.620;5.138;2024-02-21T09:30:36;10.02;67.89
84435;SHT30;74664;45.620;5.138;2024-02-21T09:33:04;10.09;68.00
84435;SHT30;74664;45.620;5.138;2024-02-21T09:35:32;10.12;67.81
84435;SHT30;74664;45.620;5.138;2024-02-21T09:37:59;10.22;67.81
84435;SHT30;74664;45.620;5.138;2024-02-21T09:40:27;10.32;67.36
84435;SHT30;74664;45.620;5.138;2024-02-21T09:43:01;10.39;67.53
84435;SHT30;74664;45.620;5.138;2024-02-21T09:45:30;10.56;67.36
84435;SHT30;74664;45.620;5.138;2024-02-21T09:48:19;10.68;67.37
84435;SHT30;74664;45.620;5.138;2024-02-21T09:50:50;10.81;67.03
84435;SHT30;74664;45.620;5.138;2024-02-21T09:53:18;10.95;66.72
84435;SHT30;74664;45.620;5.138;2024-02-21T09:55:46;11.12;66.34
84435;SHT30;74664;45.620;5.138;2024-02-21T09:58:14;11.31;66.52
84435;SHT30;74664;45.620;5.138;2024-02-21T10:00:41;11.46;65.96
84435;SHT30;74664;45.620;5.138;2024-02-21T10:03:07;11.62;65.79
84435;SHT30;74664;45.620;5.138;2024-02-21T10:05:36;11.79;65.61
84435;SHT30;74664;45.620;5.138;2024-02-21T10:08:04;11.93;64.40
84435;SHT30;74664;45.620;5.138;2024-02-21T10:10:40;12.04;63.99
84435;SHT30;74664;45.620;5.138;2024-02-21T10:13:09;12.14;63.98
84435;SHT30;74664;45.620;5.138;2024-02-21T10:15:36;12.17;62.75
84435;SHT30;74664;45.620;5.138;2024-02-21T10:18:03;12.25;62.95
84435;SHT30;74664;45.620;5.138;2024-02-21T10:20:32;12.34;62.98
84435;SHT30;74664;45.620;5.138;2024-02-21T10:23:04;12.46;63.83
84435;SHT30;74664;45.620;5.138;2024-02-21T10:25:33;12.60;63.47
84435;SHT30;74664;45.620;5.138;2024-02-21T10:28:02;12.70;62.79
84435;SHT30;74664;45.620;5.138;2024-02-21T10:30:29;12.80;63.16
84435;SHT30;74664;45.620;5.138;2024-02-21T10:32:56;12.88;62.83
84435;SHT30;74664;45.620;5.138;2024-02-21T10:35:26;12.99;63.04
84435;SHT30;74664;45.620;5.138;2024-02-21T10:37:54;13.10;62.66
84435;SHT30;74664;45.620;5.138;2024-02-21T10:40:24;13.18;62.56
84435;SHT30;74664;45.620;5.138;2024-02-21T10:42:56;13.28;62.50
84435;SHT30;74664;45.620;5.138;2024-02-21T10:45:29;13.38;62.17
84435;SHT30;74664;45.620;5.138;2024-02-21T10:48:05;13.54;62.17
84435;SHT30;74664;45.620;5.138;2024-02-21T10:50:39;13.68;62.21
84435;SHT30;74664;45.620;5.138;2024-02-21T10:53:19;13.82;61.65
84435;SHT30;74664;45.620;5.138;2024-02-21T10:56:07;13.98;61.63
84435;SHT30;74664;45.620;5.138;2024-02-21T10:58:35;14.08;60.92
84435;SHT30;74664;45.620;5.138;2024-02-21T11:01:03;14.15;60.29
84435;SHT30;74664;45.620;5.138;2024-02-21T11:03:31;14.26;58.92
84435;SHT30;74664;45.620;5.138;2024-02-21T11:05:59;14.33;60.21
84435;SHT30;74664;45.620;5.138;2024-02-21T11:08:26;14.43;60.06
84435;SHT30;74664;45.620;5.138;2024-02-21T11:10:58;14.54;58.90
84435;SHT30;74664;45.620;5.138;2024-02-21T11:13:30;14.63;58.14
84435;SHT30;74664;45.620;5.138;2024-02-21T11:16:06;14.74;58.24
84435;SHT30;74664;45.620;5.138;2024-02-21T11:18:34;14.85;57.63
84435;SHT30;74664;45.620;5.138;2024-02-21T11:21:01;14.98;54.93
84435;SHT30;74664;45.620;5.138;2024-02-21T11:23:28;15.04;56.30
84435;SHT30;74664;45.620;5.138;2024-02-21T11:26:06;15.15;56.66
84435;SHT30;74664;45.620;5.138;2024-02-21T11:28:33;15.25;55.63
84435;SHT30;74664;45.620;5.138;2024-02-21T11:31:11;15.29;55.49
84435;SHT30;74664;45.620;5.138;2024-02-21T11:33:39;15.34;55.38
84435;SHT30;74664;45.620;5.138;2024-02-21T11:36:06;15.38;54.56
84435;SHT30;74664;45.620;5.138;2024-02-21T11:38:33;15.42;54.82
84435;SHT30;74664;45.620;5.138;2024-02-21T11:40:59;15.52;54.61
84435;SHT30;74664;45.620;5.138;2024-02-21T11:43:27;15.57;53.35
84435;SHT30;74664;45.620;5.138;2024-02-21T11:45:59;15.63;53.14
84435;SHT30;74664;45.620;5.138;2024-02-21T11:48:26;15.64;53.03
84435;SHT30;74664;45.620;5.138;2024-02-21T11:50:53;15.64;53.28
84435;SHT30;74664;45.620;5.138;2024-02-21T11:53:20;15.66;50.00
84435;SHT30;74664;45.620;5.138;2024-02-21T11:55:47;15.67;52.31
84435;SHT30;74664;45.620;5.138;2024-02-21T11:58:15;15.71;51.46
84435;SHT30;74664;45.620;5.138;2024-02-21T12:00:43;15.70;52.63
84435;SHT30;74664;45.620;5.138;2024-02-21T12:03:13;15.70;52.44
84435;SHT30;74664;45.620;5.138;2024-02-21T12:05:41;15.74;52.40
84435;SHT30;74664;45.620;5.138;2024-02-21T12:08:07;15.76;51.70
84435;SHT30;74664;45.620;5.138;2024-02-21T12:10:35;15.73;51.91
84435;SHT30;74664;45.620;5.138;2024-02-21T12:13:06;15.77;51.02
84435;SHT30;74664;45.620;5.138;2024-02-21T12:15:33;15.80;50.55
84435;SHT30;74664;45.620;5.138;2024-02-21T12:18:01;15.80;50.75
84435;SHT30;74664;45.620;5.138;2024-02-21T12:20:28;15.83;50.79
84435;SHT30;74664;45.620;5.138;2024-02-21T12:22:55;15.84;48.31
84435;SHT30;74664;45.620;5.138;2024-02-21T12:25:22;15.87;49.02
84435;SHT30;74664;45.620;5.138;2024-02-21T12:27:51;15.89;49.71
84435;SHT30;74664;45.620;5.138;2024-02-21T12:30:19;15.91;49.46
84435;SHT30;74664;45.620;5.138;2024-02-21T12:32:46;15.97;49.27
84435;SHT30;74664;45.620;5.138;2024-02-21T12:35:15;16.04;49.21
84435;SHT30;74664;45.620;5.138;2024-02-21T12:37:42;16.11;49.64
84435;SHT30;74664;45.620;5.138;2024-02-21T12:40:10;16.13;48.95
84435;SHT30;74664;45.620;5.138;2024-02-21T12:42:38;16.15;46.48
84435;SHT30;74664;45.620;5.138;2024-02-21T12:45:06;16.17;46.96
84435;SHT30;74664;45.620;5.138;2024-02-21T12:47:33;16.17;47.63
84435;SHT30;74664;45.620;5.138;2024-02-21T12:49:59;16.21;46.09
84435;SHT30;74664;45.620;5.138;2024-02-21T12:52:29;16.24;45.88
84435;SHT30;74664;45.620;5.138;2024-02-21T12:54:56;16.26;47.57
84435;SHT30;74664;45.620;5.138;2024-02-21T12:57:24;16.32;46.44
84435;SHT30;74664;45.620;5.138;2024-02-21T12:59:51;16.32;45.50
84435;SHT30;74664;45.620;5.138;2024-02-21T13:02:19;16.34;46.28
84435;SHT30;74664;45.620;5.138;2024-02-21T13:04:46;16.31;45.17
84435;SHT30;74664;45.620;5.138;2024-02-21T13:07:13;16.31;44.50
84435;SHT30;74664;45.620;5.138;2024-02-21T13:09:41;16.32;45.30
84435;SHT30;74664;45.620;5.138;2024-02-21T13:12:08;16.36;46.17
84435;SHT30;74664;45.620;5.138;2024-02-21T13:14:35;16.36;43.13
84435;SHT30;74664;45.620;5.138;2024-02-21T13:17:04;16.40;42.59
84435;SHT30;74664;45.620;5.138;2024-02-21T13:19:31;16.48;44.70
84435;SHT30;74664;45.620;5.138;2024-02-21T13:21:57;16.51;42.62
84435;SHT30;74664;45.620;5.138;2024-02-21T13:24:24;16.53;43.54
84435;SHT30;74664;45.620;5.138;2024-02-21T13:26:52;16.58;43.79
84435;SHT30;74664;45.620;5.138;2024-02-21T13:29:19;16.61;43.34
84435;SHT30;74664;45.620;5.138;2024-02-21T13:31:46;16.63;42.07
84435;SHT30;74664;45.620;5.138;2024-02-21T13:34:13;16.65;40.67
84435;SHT30;74664;45.620;5.138;2024-02-21T13:36:40;16.69;39.98
84435;SHT30;74664;45.620;5.138;2024-02-21T13:39:06;16.72;42.57
84435;SHT30;74664;45.620;5.138;2024-02-21T13:41:38;16.76;41.21
84435;SHT30;74664;45.620;5.138;2024-02-21T13:44:06;16.76;42.66
84435;SHT30;74664;45.620;5.138;2024-02-21T13:46:33;16.75;42.91
84435;SHT30;74664;45.620;5.138;2024-02-21T13:49:03;16.76;43.15
84435;SHT30;74664;45.620;5.138;2024-02-21T13:51:32;16.76;41.98
84435;SHT30;74664;45.620;5.138;2024-02-21T13:53:59;16.76;41.18
84435;SHT30;74664;45.620;5.138;2024-02-21T13:56:25;16.75;43.22
84435;SHT30;74664;45.620;5.138;2024-02-21T13:58:52;16.76;42.93
84435;SHT30;74664;45.620;5.138;2024-02-21T14:01:20;16.75;41.91
84435;SHT30;74664;45.620;5.138;2024-02-21T14:03:47;16.73;42.85
84435;SHT30;74664;45.620;5.138;2024-02-21T14:06:13;16.73;41.60
84435;SHT30;74664;45.620;5.138;2024-02-21T14:08:40;16.71;42.21
84435;SHT30;74664;45.620;5.138;2024-02-21T14:11:07;16.72;41.93
84435;SHT30;74664;45.620;5.138;2024-02-21T14:13:34;16.71;41.81
84435;SHT30;74664;45.620;5.138;2024-02-21T14:16:00;16.71;40.43
84435;SHT30;74664;45.620;5.138;2024-02-21T14:18:28;16.66;40.12
84435;SHT30;74664;45.620;5.138;2024-02-21T14:20:55;16.63;40.63
84435;SHT30;74664;45.620;5.138;2024-02-21T14:23:22;16.61;41.10
84435;SHT30;74664;45.620;5.138;2024-02-21T14:25:48;16.59;40.66
84435;SHT30;74664;45.620;5.138;2024-02-21T14:28:15;16.59;41.25
84435;SHT30;74664;45.620;5.138;2024-02-21T14:30:43;16.59;41.23
84435;SHT30;74664;45.620;5.138;2024-02-21T14:33:10;16.56;40.61
84435;SHT30;74664;45.620;5.138;2024-02-21T14:35:38;16.56;41.27
84435;SHT30;74664;45.620;5.138;2024-02-21T14:38:05;16.52;41.36
84435;SHT30;74664;45.620;5.138;2024-02-21T14:40:31;16.55;40.28
84435;SHT30;74664;45.620;5.138;2024-02-21T14:42:59;16.56;41.15
84435;SHT30;74664;45.620;5.138;2024-02-21T14:45:26;16.56;40.62
84435;SHT30;74664;45.620;5.138;2024-02-21T14:47:52;16.58;40.77
84435;SHT30;74664;45.620;5.138;2024-02-21T14:50:20;16.59;41.68
84435;SHT30;74664;45.620;5.138;2024-02-21T14:52:50;16.58;40.08
84435;SHT30;74664;45.620;5.138;2024-02-21T14:55:17;16.61;41.61
84435;SHT30;74664;45.620;5.138;2024-02-21T14:57:44;16.56;40.94
84435;SHT30;74664;45.620;5.138;2024-02-21T15:00:11;16.55;39.86
84435;SHT30;74664;45.620;5.138;2024-02-21T15:02:38;16.48;40.24
84435;SHT30;74664;45.620;5.138;2024-02-21T15:05:04;16.44;41.13
84435;SHT30;74664;45.620;5.138;2024-02-21T15:07:31;16.41;40.81
84435;SHT30;74664;45.620;5.138;2024-02-21T15:10:02;16.35;38.87
84435;SHT30;74664;45.620;5.138;2024-02-21T15:12:29;16.31;40.31
84435;SHT30;74664;45.620;5.138;2024-02-21T15:14:58;16.25;39.90
84435;SHT30;74664;45.620;5.138;2024-02-21T15:17:24;16.25;39.91
84435;SHT30;74664;45.620;5.138;2024-02-21T15:19:51;16.20;40.50
84435;SHT30;74664;45.620;5.138;2024-02-21T15:22:20;16.18;40.13
84435;SHT30;74664;45.620;5.138;2024-02-21T15:24:48;16.13;38.51
84435;SHT30;74664;45.620;5.138;2024-02-21T15:27:16;16.08;40.14
84435;SHT30;74664;45.620;5.138;2024-02-21T15:29:43;16.05;40.03
84435;SHT30;74664;45.620;5.138;2024-02-21T15:32:11;16.03;40.29
84435;SHT30;74664;45.620;5.138;2024-02-21T15:34:38;15.96;40.08
84435;SHT30;74664;45.620;5.138;2024-02-21T15:37:05;15.94;40.24
84435;SHT30;74664;45.620;5.138;2024-02-21T15:39:33;15.89;39.04
84435;SHT30;74664;45.620;5.138;2024-02-21T15:42:01;15.86;39.62
84435;SHT30;74664;45.620;5.138;2024-02-21T15:44:29;15.80;39.63